Chatham, Virginia
Current Conditions -  °F | °C
As of 2:53 PM on Friday 21 Nov 2014 (Local Time) from KDAN Reporting Station
Clear Clear  
Wind Chill: 42°   Ceiling: Unl
Heat Index: 46°   Visibility: 10mi
Dew Point:   Wind: 7mph
Humidity: 22%   Direction: 20°NNE
Pressure: 30.45"   Gusts: NA
Location:  36.83°N, 79.4°W
Report Text: KDAN 211953Z AUTO 02006KT 10SM CLR 08/M13 A3045 RMK AO2 SLP308 T00781128
Loading
Personal Weather Stations






























Interactive Weather Map New forecast layout! Learn more

10-Day Weather Forecast

Advertisements
Track Severe Weather on mobile